TimeCST,TemperatureF,Dew PointF,Humidity,Sea Level PressureIn,VisibilityMPH,Wind Direction,Wind SpeedMPH,Gust SpeedMPH,PrecipitationIn,Events,Conditions,WindDirDegrees,DateUTC
12:23 AM,25.0,19.9,81,29.85,6.0,SSW,5.8,-,N/A,,Haze,200,2014-02-13 06:23:00
12:52 AM,27.0,21.0,78,29.86,6.0,SSW,6.9,-,N/A,,Haze,200,2014-02-13 06:52:00
1:52 AM,27.0,21.0,78,29.82,6.0,South,15.0,-,N/A,,Haze,170,2014-02-13 07:52:00
2:52 AM,27.0,21.9,81,29.80,6.0,South,15.0,-,N/A,,Haze,170,2014-02-13 08:52:00
3:52 AM,28.0,21.9,78,29.76,8.0,South,12.7,-,N/A,,Overcast,170,2014-02-13 09:52:00
4:52 AM,26.1,21.9,84,29.77,8.0,SSE,11.5,-,N/A,,Scattered Clouds,160,2014-02-13 10:52:00
5:52 AM,24.1,19.9,84,29.75,8.0,SSE,11.5,-,N/A,,Partly Cloudy,150,2014-02-13 11:52:00
6:52 AM,21.9,19.0,89,29.76,7.0,SSE,9.2,-,N/A,,Partly Cloudy,150,2014-02-13 12:52:00
7:52 AM,25.0,19.9,81,29.75,8.0,SE,8.1,-,N/A,,Clear,130,2014-02-13 13:52:00
8:52 AM,28.9,23.0,78,29.78,10.0,South,6.9,-,N/A,,Clear,170,2014-02-13 14:52:00
9:52 AM,37.0,26.1,65,29.78,10.0,Calm,Calm,-,N/A,,Clear,0,2014-02-13 15:52:00
10:52 AM,44.1,28.0,53,29.78,10.0,NW,15.0,24.2,N/A,,Clear,310,2014-02-13 16:52:00
11:52 AM,46.9,28.9,50,29.76,10.0,WNW,17.3,-,N/A,,Clear,300,2014-02-13 17:52:00
12:52 PM,48.9,30.0,48,29.73,10.0,WNW,17.3,-,N/A,,Clear,300,2014-02-13 18:52:00
1:52 PM,50.0,27.0,41,29.72,10.0,WNW,16.1,-,N/A,,Partly Cloudy,300,2014-02-13 19:52:00
2:52 PM,51.1,27.0,39,29.73,10.0,NW,18.4,-,N/A,,Partly Cloudy,310,2014-02-13 20:52:00
3:52 PM,51.1,28.0,41,29.74,10.0,NNW,10.4,20.7,N/A,,Partly Cloudy,330,2014-02-13 21:52:00
4:52 PM,48.0,26.1,42,29.75,10.0,North,12.7,-,N/A,,Partly Cloudy,350,2014-02-13 22:52:00
5:52 PM,39.9,26.1,58,29.75,10.0,North,9.2,-,N/A,,Partly Cloudy,360,2014-02-13 23:52:00
6:52 PM,36.0,25.0,64,29.78,10.0,North,9.2,-,N/A,,Scattered Clouds,350,2014-02-14 00:52:00
7:52 PM,33.1,24.1,70,29.78,10.0,North,6.9,-,N/A,,Mostly Cloudy,350,2014-02-14 01:52:00
8:52 PM,30.0,19.0,64,29.79,10.0,NNE,6.9,-,N/A,,Scattered Clouds,30,2014-02-14 02:52:00
9:52 PM,28.0,17.1,63,29.78,10.0,East,4.6,-,N/A,,Scattered Clouds,80,2014-02-14 03:52:00
10:52 PM,27.0,16.0,63,29.75,10.0,ENE,4.6,-,N/A,,Scattered Clouds,70,2014-02-14 04:52:00
11:52 PM,27.0,15.1,61,29.73,10.0,East,8.1,-,N/A,,Overcast,80,2014-02-14 05:52:00